createdAt,value
2018-11-13T00:01:44.877Z,10.40
2018-11-13T00:04:12.943Z,10.40
2018-11-13T00:06:41.057Z,10.40
2018-11-13T00:09:09.313Z,10.40
2018-11-13T00:11:37.671Z,10.30
2018-11-13T00:14:05.658Z,10.40
2018-11-13T00:16:33.784Z,10.40
2018-11-13T00:19:01.958Z,10.40
2018-11-13T00:21:30.061Z,10.30
2018-11-13T00:23:58.142Z,10.30
2018-11-13T00:26:26.204Z,10.20
2018-11-13T00:28:54.266Z,10.20
2018-11-13T00:31:22.479Z,10.10
2018-11-13T00:33:50.533Z,10.10
2018-11-13T00:36:18.600Z,10.00
2018-11-13T00:38:46.713Z,10.00
2018-11-13T00:41:14.736Z,10.00
2018-11-13T00:43:42.957Z,10.00
2018-11-13T00:46:10.990Z,10.00
2018-11-13T00:48:39.073Z,10.00
2018-11-13T00:51:07.136Z,10.00
2018-11-13T00:53:35.222Z,9.90
2018-11-13T00:56:03.247Z,9.80
2018-11-13T00:58:31.490Z,9.80
2018-11-13T01:00:59.684Z,9.70
2018-11-13T01:03:27.820Z,9.70
2018-11-13T01:05:55.913Z,9.70
2018-11-13T01:08:23.924Z,9.70
2018-11-13T01:10:52.043Z,9.70
2018-11-13T01:13:20.095Z,9.60
2018-11-13T01:15:48.165Z,9.60
2018-11-13T01:18:16.223Z,9.60
2018-11-13T01:20:44.329Z,9.60
2018-11-13T01:23:12.505Z,9.60
2018-11-13T01:25:40.566Z,9.60
2018-11-13T01:28:08.619Z,9.50
2018-11-13T01:30:36.688Z,9.50
2018-11-13T01:33:04.750Z,9.40
2018-11-13T01:35:32.933Z,9.40
2018-11-13T01:38:01.201Z,9.30
2018-11-13T01:40:29.269Z,9.30
2018-11-13T01:42:57.410Z,9.30
2018-11-13T01:45:25.455Z,9.30
2018-11-13T01:47:53.655Z,9.20
2018-11-13T01:50:21.671Z,9.20
2018-11-13T01:52:49.775Z,9.30
2018-11-13T01:55:17.894Z,9.30
2018-11-13T01:57:46.020Z,9.40
2018-11-13T02:00:22.898Z,9.50
2018-11-13T02:02:52.204Z,9.50
2018-11-13T02:05:21.379Z,9.50
2018-11-13T02:07:49.876Z,9.50
2018-11-13T02:10:18.466Z,9.40
2018-11-13T02:12:46.849Z,9.40
2018-11-13T02:15:14.966Z,9.40
2018-11-13T02:17:43.207Z,9.40
2018-11-13T02:20:13.601Z,9.30
2018-11-13T02:22:41.853Z,9.30
2018-11-13T02:25:11.903Z,9.30
2018-11-13T02:27:40.488Z,9.30
2018-11-13T02:30:10.922Z,9.20
2018-11-13T02:32:39.297Z,9.30
2018-11-13T02:35:08.219Z,9.20
2018-11-13T02:37:36.581Z,9.20
2018-11-13T02:40:05.976Z,9.20
2018-11-13T02:42:35.185Z,9.20
2018-11-13T02:45:03.549Z,9.30
2018-11-13T02:47:31.916Z,9.30
2018-11-13T02:50:00.309Z,9.40
2018-11-13T02:52:28.759Z,9.40
2018-11-13T02:54:56.904Z,9.40
2018-11-13T02:57:24.992Z,9.40
2018-11-13T02:59:53.129Z,9.40
2018-11-13T03:02:21.170Z,9.40
2018-11-13T03:04:49.414Z,9.50
2018-11-13T03:07:17.492Z,9.50
2018-11-13T03:09:45.606Z,9.50
2018-11-13T03:12:13.705Z,9.40
2018-11-13T03:14:41.765Z,9.30
2018-11-13T03:17:09.798Z,9.20
2018-11-13T03:19:38.125Z,9.20
2018-11-13T03:22:06.162Z,9.10
2018-11-13T03:24:34.476Z,9.10
2018-11-13T03:27:02.492Z,9.20
2018-11-13T03:29:30.604Z,9.20
2018-11-13T03:31:58.728Z,9.20
2018-11-13T03:34:27.736Z,9.30
2018-11-13T03:36:55.799Z,9.30
2018-11-13T03:39:23.907Z,9.30
2018-11-13T03:41:51.964Z,9.30
2018-11-13T03:44:20.044Z,9.30
2018-11-13T03:46:48.110Z,9.20
2018-11-13T03:49:16.179Z,9.20
2018-11-13T03:51:44.244Z,9.30
2018-11-13T03:54:12.355Z,9.20
2018-11-13T03:56:40.377Z,9.30
2018-11-13T03:59:08.519Z,9.20
2018-11-13T04:01:36.558Z,9.30
2018-11-13T04:04:10.472Z,9.30
2018-11-13T04:06:38.524Z,9.20
2018-11-13T04:09:08.669Z,9.30
2018-11-13T04:11:36.755Z,9.20
2018-11-13T04:14:05.973Z,9.20
2018-11-13T04:16:34.215Z,9.20
2018-11-13T04:19:02.300Z,9.20
2018-11-13T04:21:30.349Z,9.20
2018-11-13T04:23:58.404Z,9.20
2018-11-13T04:26:26.468Z,9.20
2018-11-13T04:28:54.978Z,9.20
2018-11-13T04:31:23.373Z,9.20
2018-11-13T04:33:51.437Z,9.20
2018-11-13T04:36:19.624Z,9.20
2018-11-13T04:38:48.817Z,9.30
2018-11-13T04:41:16.857Z,9.30
2018-11-13T04:43:45.004Z,9.30
2018-11-13T04:46:13.099Z,9.30
2018-11-13T04:48:41.269Z,9.30
2018-11-13T04:51:09.536Z,9.30
2018-11-13T04:53:37.657Z,9.30
2018-11-13T04:56:06.156Z,9.40
2018-11-13T04:58:34.258Z,9.40
2018-11-13T05:01:02.382Z,9.40
2018-11-13T05:03:30.435Z,9.40
2018-11-13T05:05:58.544Z,9.40
2018-11-13T05:08:26.557Z,9.40
2018-11-13T05:10:54.672Z,9.30
2018-11-13T05:13:22.796Z,9.40
2018-11-13T05:15:51.805Z,9.30
2018-11-13T05:18:19.875Z,9.20
2018-11-13T05:20:47.960Z,9.20
2018-11-13T05:23:16.139Z,9.20
2018-11-13T05:25:44.184Z,9.20
2018-11-13T05:28:12.287Z,9.20
2018-11-13T05:30:40.475Z,9.20
2018-11-13T05:33:08.535Z,9.20
2018-11-13T05:35:36.636Z,9.20
2018-11-13T05:38:04.744Z,9.20
2018-11-13T05:40:32.855Z,9.20
2018-11-13T05:43:01.120Z,9.20
2018-11-13T05:45:29.179Z,9.30
2018-11-13T05:47:57.287Z,9.30
2018-11-13T05:50:25.385Z,9.30
2018-11-13T05:52:54.229Z,9.30
2018-11-13T05:55:22.305Z,9.30
2018-11-13T05:57:50.707Z,9.30
2018-11-13T06:00:20.508Z,9.30
2018-11-13T06:02:48.572Z,9.30
2018-11-13T06:05:16.689Z,9.30
2018-11-13T06:07:45.866Z,9.30
2018-11-13T06:10:14.248Z,9.30
2018-11-13T06:12:42.636Z,9.30
2018-11-13T06:15:11.108Z,9.30
2018-11-13T06:17:39.267Z,9.20
2018-11-13T06:20:16.411Z,9.30
2018-11-13T06:22:44.727Z,9.30
2018-11-13T06:25:15.006Z,9.20
2018-11-13T06:27:44.111Z,9.20
2018-11-13T06:30:14.526Z,9.20
2018-11-13T06:32:46.034Z,9.20
2018-11-13T06:35:14.087Z,9.20
2018-11-13T06:37:42.189Z,9.30
2018-11-13T06:40:10.670Z,9.20
2018-11-13T06:42:39.390Z,9.20
2018-11-13T06:45:10.210Z,9.20
2018-11-13T06:47:38.294Z,9.20
2018-11-13T06:50:07.687Z,9.20
2018-11-13T06:52:35.799Z,9.20
2018-11-13T06:55:08.140Z,9.30
2018-11-13T06:57:36.282Z,9.30
2018-11-13T07:00:04.884Z,9.30
2018-11-13T07:02:32.947Z,9.20
2018-11-13T07:05:01.026Z,9.30
2018-11-13T07:07:29.379Z,9.30
2018-11-13T07:09:57.467Z,9.30
2018-11-13T07:12:25.547Z,9.30
2018-11-13T07:14:53.598Z,9.40
2018-11-13T07:17:21.756Z,9.50
2018-11-13T07:19:49.944Z,9.50
2018-11-13T07:22:17.998Z,9.60
2018-11-13T07:24:46.104Z,9.50
2018-11-13T07:27:14.354Z,9.50
2018-11-13T07:29:42.430Z,9.50
2018-11-13T07:32:10.522Z,9.50
2018-11-13T07:34:38.708Z,9.50
2018-11-13T07:37:06.776Z,9.50
2018-11-13T07:39:34.891Z,9.50
2018-11-13T07:42:02.993Z,9.50
2018-11-13T07:44:31.344Z,9.60
2018-11-13T07:46:59.606Z,9.60
2018-11-13T07:49:27.741Z,9.60
2018-11-13T07:51:56.113Z,9.60
2018-11-13T07:54:24.222Z,9.60
2018-11-13T07:56:52.240Z,9.60
2018-11-13T07:59:20.316Z,9.60
2018-11-13T08:01:48.447Z,9.60
2018-11-13T08:04:16.444Z,9.60
2018-11-13T08:06:44.594Z,9.60
2018-11-13T08:09:12.601Z,9.60
2018-11-13T08:11:40.898Z,9.70
2018-11-13T08:14:08.961Z,9.70
2018-11-13T08:16:37.048Z,9.80
2018-11-13T08:19:05.337Z,9.80
2018-11-13T08:21:33.495Z,9.80
2018-11-13T08:24:01.674Z,9.80
2018-11-13T08:26:29.700Z,9.80
2018-11-13T08:28:57.839Z,9.80
2018-11-13T08:31:25.958Z,9.90
2018-11-13T08:33:54.024Z,9.90
2018-11-13T08:36:22.148Z,9.90
2018-11-13T08:38:50.375Z,10.00
2018-11-13T08:41:18.466Z,10.10
2018-11-13T08:43:46.831Z,10.00
2018-11-13T08:46:14.954Z,10.10
2018-11-13T08:48:42.980Z,10.10
2018-11-13T08:51:11.071Z,10.20
2018-11-13T08:53:39.150Z,10.20
2018-11-13T08:56:07.299Z,10.30
2018-11-13T08:58:35.481Z,10.30
2018-11-13T09:01:03.468Z,10.40
2018-11-13T09:03:31.546Z,10.40
2018-11-13T09:05:59.676Z,10.30
2018-11-13T09:08:27.857Z,10.30
2018-11-13T09:10:56.102Z,10.30
2018-11-13T09:13:24.140Z,10.30
2018-11-13T09:15:52.217Z,10.30
2018-11-13T09:18:20.269Z,10.40
2018-11-13T09:20:48.367Z,10.40
2018-11-13T09:23:16.438Z,10.40
2018-11-13T09:25:44.512Z,10.50
2018-11-13T09:28:12.596Z,10.50
2018-11-13T09:30:40.812Z,10.50
2018-11-13T09:33:08.768Z,10.60
2018-11-13T09:35:36.905Z,10.60
2018-11-13T09:38:05.077Z,10.60
2018-11-13T09:40:33.135Z,10.70
2018-11-13T09:43:01.248Z,10.60
2018-11-13T09:45:29.351Z,10.70
2018-11-13T09:47:57.424Z,10.70
2018-11-13T09:50:25.567Z,10.80
2018-11-13T09:52:53.666Z,10.80
2018-11-13T09:55:22.645Z,10.80
2018-11-13T09:57:50.959Z,10.90
2018-11-13T10:00:22.337Z,10.90
2018-11-13T10:02:53.196Z,11.00
2018-11-13T10:05:21.624Z,11.10
2018-11-13T10:07:50.116Z,11.10
2018-11-13T10:10:18.339Z,11.10
2018-11-13T10:12:46.489Z,11.10
2018-11-13T10:20:17.024Z,11.20
2018-11-13T10:22:46.578Z,11.20
2018-11-13T10:25:14.625Z,11.30
2018-11-13T10:27:42.932Z,11.30
2018-11-13T10:30:14.180Z,11.30
2018-11-13T10:32:42.732Z,11.40
2018-11-13T10:35:12.140Z,11.40
2018-11-13T10:37:40.660Z,11.40
2018-11-13T10:40:11.053Z,11.50
2018-11-13T10:42:39.623Z,11.40
2018-11-13T10:45:10.177Z,11.40
2018-11-13T10:47:38.395Z,11.40
2018-11-13T10:50:10.291Z,11.40
2018-11-13T10:52:38.367Z,11.40
2018-11-13T10:55:07.092Z,11.40
2018-11-13T10:57:35.183Z,11.40
2018-11-13T11:00:03.932Z,11.40
2018-11-13T11:03:42.032Z,11.40
2018-11-13T11:06:10.150Z,11.30
2018-11-13T11:08:38.289Z,11.30
2018-11-13T11:11:06.334Z,11.40
2018-11-13T11:13:34.455Z,11.30
2018-11-13T11:16:02.456Z,11.30
2018-11-13T11:18:30.570Z,11.30
2018-11-13T11:20:58.644Z,11.30
2018-11-13T11:23:26.759Z,11.40
2018-11-13T11:25:54.750Z,11.40
2018-11-13T11:28:22.855Z,11.50
2018-11-13T11:30:50.908Z,11.50
2018-11-13T11:33:19.072Z,11.50
2018-11-13T11:35:47.189Z,11.60
2018-11-13T11:38:15.344Z,11.50
2018-11-13T11:40:43.392Z,11.50
2018-11-13T11:43:11.444Z,11.60
2018-11-13T11:45:39.577Z,11.50
2018-11-13T11:48:07.702Z,11.50
2018-11-13T11:50:35.823Z,11.50
2018-11-13T11:53:04.147Z,11.50
2018-11-13T11:55:32.221Z,11.60
2018-11-13T11:58:00.359Z,11.60
2018-11-13T12:00:29.906Z,11.60
2018-11-13T12:02:57.883Z,11.60
2018-11-13T12:05:26.034Z,11.60
2018-11-13T12:07:54.231Z,11.60
2018-11-13T12:10:22.321Z,11.50
2018-11-13T12:12:50.647Z,11.60
2018-11-13T12:15:18.748Z,11.50
2018-11-13T12:17:46.859Z,11.50
2018-11-13T12:20:15.824Z,11.50
2018-11-13T12:22:43.966Z,11.60
2018-11-13T12:25:14.775Z,11.60
2018-11-13T12:27:43.568Z,11.60
2018-11-13T12:30:13.872Z,11.60
2018-11-13T12:32:42.030Z,11.70
2018-11-13T12:35:11.802Z,11.70
2018-11-13T12:37:39.908Z,11.70
2018-11-13T12:40:13.137Z,11.80
2018-11-13T12:42:41.412Z,12.00
2018-11-13T12:45:10.202Z,12.20
2018-11-13T12:47:38.690Z,12.30
2018-11-13T12:50:07.948Z,12.30
2018-11-13T12:52:36.034Z,12.30
2018-11-13T12:55:04.544Z,12.30
2018-11-13T12:57:32.641Z,12.40
2018-11-13T13:00:00.853Z,12.50
2018-11-13T13:02:29.000Z,12.50
2018-11-13T13:04:57.153Z,12.40
2018-11-13T13:07:25.200Z,12.50
2018-11-13T13:09:53.231Z,12.50
2018-11-13T13:12:21.347Z,12.50
2018-11-13T13:14:49.493Z,12.50
2018-11-13T13:17:17.595Z,12.50
2018-11-13T13:19:45.643Z,12.50
2018-11-13T13:22:13.815Z,12.40
2018-11-13T13:24:41.917Z,12.40
2018-11-13T13:27:10.035Z,12.30
2018-11-13T13:29:38.259Z,12.30
2018-11-13T13:32:06.310Z,12.30
2018-11-13T13:34:34.610Z,12.20
2018-11-13T13:37:03.583Z,12.20
2018-11-13T13:39:31.767Z,12.20
2018-11-13T13:41:59.921Z,12.20
2018-11-13T13:44:28.176Z,12.20
2018-11-13T13:46:56.451Z,12.20
2018-11-13T13:49:24.584Z,12.20
2018-11-13T13:51:52.676Z,12.20
2018-11-13T13:54:20.980Z,12.10
2018-11-13T13:56:49.028Z,12.10
2018-11-13T13:59:17.136Z,12.10
2018-11-13T14:01:45.217Z,12.10
2018-11-13T14:04:13.303Z,12.10
2018-11-13T14:06:41.999Z,12.00
2018-11-13T14:09:10.772Z,12.00
2018-11-13T14:11:39.065Z,11.90
2018-11-13T14:14:08.301Z,11.90
2018-11-13T14:16:36.560Z,11.90
2018-11-13T14:19:04.927Z,11.80
2018-11-13T14:21:33.105Z,11.80
2018-11-13T14:24:01.330Z,11.80
2018-11-13T14:26:29.465Z,11.90
2018-11-13T14:28:57.552Z,11.90
2018-11-13T14:31:25.624Z,12.00
2018-11-13T14:33:53.669Z,12.00
2018-11-13T14:36:21.742Z,12.00
2018-11-13T14:38:50.965Z,12.10
2018-11-13T14:41:19.020Z,12.20
2018-11-13T14:43:47.065Z,12.30
2018-11-13T14:46:15.170Z,12.30
2018-11-13T14:49:46.321Z,12.30
2018-11-13T14:52:14.377Z,12.20
2018-11-13T14:54:42.477Z,12.10
2018-11-13T14:57:10.577Z,12.00
2018-11-13T14:59:38.715Z,11.90
2018-11-13T15:02:06.814Z,11.80
2018-11-13T15:04:34.969Z,11.70
2018-11-13T15:07:03.028Z,11.60
2018-11-13T15:09:31.110Z,11.60
2018-11-13T15:12:00.182Z,11.50
2018-11-13T15:14:28.270Z,11.40
2018-11-13T15:16:56.291Z,11.30
2018-11-13T15:19:24.410Z,11.20
2018-11-13T15:21:52.456Z,11.20
2018-11-13T15:24:20.582Z,11.10
2018-11-13T15:26:48.648Z,11.10
2018-11-13T15:29:16.808Z,11.00
2018-11-13T15:31:44.896Z,11.00
2018-11-13T15:34:13.022Z,10.90
2018-11-13T15:36:41.350Z,10.90
2018-11-13T15:39:11.131Z,10.90
2018-11-13T15:41:39.215Z,10.80
2018-11-13T15:44:07.292Z,10.90
2018-11-13T15:46:35.330Z,10.90
2018-11-13T15:49:03.434Z,10.90
2018-11-13T15:51:31.531Z,10.90
2018-11-13T15:53:59.559Z,11.00
2018-11-13T15:56:27.664Z,11.00
2018-11-13T15:58:55.688Z,11.00
2018-11-13T16:01:23.756Z,11.00
2018-11-13T16:03:51.853Z,11.10
2018-11-13T16:06:19.999Z,11.10
2018-11-13T16:08:47.971Z,11.10
2018-11-13T16:11:16.095Z,11.00
2018-11-13T16:13:44.125Z,11.00
2018-11-13T16:16:12.180Z,11.00
2018-11-13T16:18:40.461Z,10.90
2018-11-13T16:21:08.478Z,10.80
2018-11-13T16:23:36.556Z,10.80
2018-11-13T16:26:04.825Z,10.70
2018-11-13T16:28:32.851Z,10.60
2018-11-13T16:31:01.020Z,10.50
2018-11-13T16:33:28.988Z,10.40
2018-11-13T16:35:57.205Z,10.40
2018-11-13T16:38:25.371Z,10.40
2018-11-13T16:40:53.338Z,10.30
2018-11-13T16:43:21.408Z,10.20
2018-11-13T16:45:49.515Z,10.00
2018-11-13T16:48:17.648Z,10.00
2018-11-13T16:50:45.630Z,9.90
2018-11-13T16:53:13.668Z,9.90
2018-11-13T16:55:47.191Z,9.80
2018-11-13T16:58:16.144Z,9.80
2018-11-13T17:00:44.380Z,9.80
2018-11-13T17:03:12.444Z,9.80
2018-11-13T17:05:40.615Z,9.80
2018-11-13T17:08:08.541Z,9.80
2018-11-13T17:10:39.627Z,9.80
2018-11-13T17:13:07.919Z,9.90
2018-11-13T17:15:36.088Z,9.90
2018-11-13T17:18:04.801Z,9.90
2018-11-13T17:20:32.985Z,9.90
2018-11-13T17:23:01.012Z,10.00
2018-11-13T17:25:31.627Z,10.10
2018-11-13T17:27:59.720Z,10.10
2018-11-13T17:30:29.207Z,10.20
2018-11-13T17:32:58.395Z,10.30
2018-11-13T17:35:27.552Z,10.40
2018-11-13T17:37:56.125Z,10.40
2018-11-13T17:40:25.373Z,10.40
2018-11-13T17:42:54.826Z,10.50
2018-11-13T17:45:28.368Z,10.60
2018-11-13T17:47:56.784Z,10.60
2018-11-13T17:50:28.341Z,10.60
2018-11-13T17:52:56.395Z,10.50
2018-11-13T17:55:25.007Z,10.40
2018-11-13T17:57:55.466Z,10.50
2018-11-13T18:00:46.969Z,10.50
2018-11-13T18:03:16.661Z,10.50
2018-11-13T18:08:44.644Z,10.40
2018-11-13T18:11:12.689Z,10.30
2018-11-13T18:13:40.766Z,10.30
2018-11-13T18:16:09.071Z,10.20
2018-11-13T18:18:37.564Z,10.00
2018-11-13T18:21:05.959Z,10.00
2018-11-13T18:23:34.091Z,9.90
2018-11-13T18:26:02.179Z,9.70
2018-11-13T18:28:30.445Z,9.60
2018-11-13T18:30:58.403Z,9.70
2018-11-13T18:33:26.467Z,9.60
2018-11-13T18:35:54.740Z,9.60
2018-11-13T18:38:22.929Z,9.60
2018-11-13T18:40:50.999Z,9.50
2018-11-13T18:43:19.150Z,9.50
2018-11-13T18:45:47.270Z,9.40
2018-11-13T18:48:15.388Z,9.40
2018-11-13T18:50:44.828Z,9.30
2018-11-13T18:53:13.053Z,9.30
2018-11-13T18:55:41.358Z,9.20
2018-11-13T18:58:09.470Z,9.10
2018-11-13T19:00:39.087Z,8.90
2018-11-13T19:03:08.514Z,8.90
2018-11-13T19:05:36.815Z,8.80
2018-11-13T19:08:05.222Z,8.80
2018-11-13T19:10:40.638Z,8.80
2018-11-13T19:13:14.346Z,8.70
2018-11-13T19:15:43.974Z,8.70
2018-11-13T19:18:12.393Z,8.60
2018-11-13T19:20:40.489Z,8.60
2018-11-13T19:23:08.614Z,8.60
2018-11-13T19:25:37.201Z,8.50
2018-11-13T19:28:05.374Z,8.50
2018-11-13T19:30:33.466Z,8.50
2018-11-13T19:33:01.696Z,8.50
2018-11-13T19:35:30.013Z,8.50
2018-11-13T19:37:57.997Z,8.50
2018-11-13T19:40:27.212Z,8.50
2018-11-13T19:42:56.498Z,8.50
2018-11-13T19:45:24.737Z,8.40
2018-11-13T19:47:52.925Z,8.40
2018-11-13T19:50:23.285Z,8.40
2018-11-13T19:52:51.368Z,8.40
2018-11-13T19:55:20.335Z,8.40
2018-11-13T19:57:48.891Z,8.30
2018-11-13T20:00:34.919Z,8.30
2018-11-13T20:03:04.328Z,8.30
2018-11-13T20:05:33.403Z,8.30
2018-11-13T20:08:01.485Z,8.30
2018-11-13T20:10:30.806Z,8.20
2018-11-13T20:13:01.221Z,8.30
2018-11-13T20:15:29.896Z,8.30
2018-11-13T20:17:57.952Z,8.40
2018-11-13T20:20:27.354Z,8.40
2018-11-13T20:22:55.940Z,8.50
2018-11-13T20:25:25.364Z,8.50
2018-11-13T20:27:53.501Z,8.50
2018-11-13T20:30:24.053Z,8.50
2018-11-13T20:32:52.115Z,8.60
2018-11-13T20:35:20.287Z,8.60
2018-11-13T20:37:48.973Z,8.60
2018-11-13T20:40:18.514Z,8.60
2018-11-13T20:42:47.792Z,8.50
2018-11-13T20:45:15.884Z,8.50
2018-11-13T20:47:44.000Z,8.60
2018-11-13T20:50:14.195Z,8.50
2018-11-13T20:52:42.313Z,8.50
2018-11-13T20:55:10.915Z,8.60
2018-11-13T20:57:39.210Z,8.60
2018-11-13T21:00:11.127Z,8.60
2018-11-13T21:02:39.404Z,8.60
2018-11-13T21:05:07.574Z,8.60
2018-11-13T21:07:36.145Z,8.60
2018-11-13T21:10:05.630Z,8.60
2018-11-13T21:12:33.744Z,8.60
2018-11-13T21:15:01.863Z,8.60
2018-11-13T21:17:30.052Z,8.50
2018-11-13T21:19:58.097Z,8.50
2018-11-13T21:22:26.235Z,8.50
2018-11-13T21:24:54.354Z,8.50
2018-11-13T21:27:22.448Z,8.50
2018-11-13T21:29:50.526Z,8.40
2018-11-13T21:32:18.559Z,8.40
2018-11-13T21:34:46.626Z,8.40
2018-11-13T21:37:14.824Z,8.40
2018-11-13T21:39:42.755Z,8.40
2018-11-13T21:42:10.830Z,8.30
2018-11-13T21:44:38.962Z,8.20
2018-11-13T21:47:07.149Z,8.20
2018-11-13T21:49:35.245Z,8.20
2018-11-13T21:58:12.497Z,8.10
2018-11-13T22:00:40.675Z,7.90
2018-11-13T22:03:08.948Z,7.90
2018-11-13T22:05:37.475Z,7.90
2018-11-13T22:08:05.992Z,7.90
2018-11-13T22:10:34.151Z,7.80
2018-11-13T22:13:02.365Z,7.80
2018-11-13T22:15:31.056Z,7.70
2018-11-13T22:17:59.867Z,7.70
2018-11-13T22:20:27.608Z,7.70
2018-11-13T22:22:56.924Z,7.60
2018-11-13T22:25:25.590Z,7.60
2018-11-13T22:27:54.940Z,7.60
2018-11-13T22:30:24.288Z,7.60
2018-11-13T22:32:52.404Z,7.50
2018-11-13T22:35:21.227Z,7.50
2018-11-13T22:39:18.643Z,7.50
2018-11-13T22:41:46.657Z,7.50
2018-11-13T22:44:14.814Z,7.70
2018-11-13T22:46:42.826Z,7.70
2018-11-13T22:49:10.931Z,7.70
2018-11-13T22:51:38.983Z,7.70
2018-11-13T22:54:07.035Z,7.70
2018-11-13T22:56:35.147Z,7.70
2018-11-13T22:59:03.206Z,7.80
2018-11-13T23:01:31.255Z,7.80
2018-11-13T23:03:59.344Z,7.80
2018-11-13T23:06:27.408Z,7.70
2018-11-13T23:08:55.472Z,7.70
2018-11-13T23:11:23.567Z,7.60
2018-11-13T23:13:51.644Z,7.80
2018-11-13T23:16:19.677Z,7.80
2018-11-13T23:18:47.776Z,7.80
2018-11-13T23:21:15.816Z,7.80
2018-11-13T23:23:43.912Z,7.80
2018-11-13T23:26:11.981Z,7.80
2018-11-13T23:28:40.067Z,7.90
2018-11-13T23:33:42.569Z,7.90
2018-11-13T23:36:10.699Z,8.00
2018-11-13T23:38:38.712Z,8.00
2018-11-13T23:41:06.756Z,7.90
2018-11-13T23:43:34.828Z,8.00
2018-11-13T23:46:02.889Z,8.00
2018-11-13T23:48:31.042Z,8.00
2018-11-13T23:50:59.207Z,8.10
2018-11-13T23:53:27.269Z,8.20
2018-11-13T23:55:55.280Z,8.30
2018-11-13T23:58:23.379Z,8.40
